sensor_id;sensor_type;location;lat;lon;timestamp;temperature;humidity
79513;SHT31;68962;51.980;5.678;2023-07-31T00:02:08;16.8;83.3
79513;SHT31;68962;51.980;5.678;2023-07-31T00:04:37;16.8;83.2
79513;SHT31;68962;51.980;5.678;2023-07-31T00:07:06;16.8;83.0
79513;SHT31;68962;51.980;5.678;2023-07-31T00:09:35;16.8;83.0
79513;SHT31;68962;51.980;5.678;2023-07-31T00:12:04;16.9;83.1
79513;SHT31;68962;51.980;5.678;2023-07-31T00:14:32;16.9;82.9
79513;SHT31;68962;51.980;5.678;2023-07-31T00:17:01;16.9;82.7
79513;SHT31;68962;51.980;5.678;2023-07-31T00:19:29;16.9;82.7
79513;SHT31;68962;51.980;5.678;2023-07-31T00:22:00;17.0;82.5
79513;SHT31;68962;51.980;5.678;2023-07-31T00:24:28;17.0;82.7
79513;SHT31;68962;51.980;5.678;2023-07-31T00:26:57;17.0;82.8
79513;SHT31;68962;51.980;5.678;2023-07-31T00:29:25;17.0;83.1
79513;SHT31;68962;51.980;5.678;2023-07-31T00:31:54;17.0;83.4
79513;SHT31;68962;51.980;5.678;2023-07-31T00:34:22;17.0;83.7
79513;SHT31;68962;51.980;5.678;2023-07-31T00:36:51;17.0;84.1
79513;SHT31;68962;51.980;5.678;2023-07-31T00:39:20;17.1;84.4
79513;SHT31;68962;51.980;5.678;2023-07-31T00:41:48;17.1;84.6
79513;SHT31;68962;51.980;5.678;2023-07-31T00:44:17;17.2;84.6
79513;SHT31;68962;51.980;5.678;2023-07-31T00:46:46;17.3;84.6
79513;SHT31;68962;51.980;5.678;2023-07-31T00:49:16;17.4;84.7
79513;SHT31;68962;51.980;5.678;2023-07-31T00:51:46;17.6;84.2
79513;SHT31;68962;51.980;5.678;2023-07-31T00:54:15;17.7;83.3
79513;SHT31;68962;51.980;5.678;2023-07-31T00:56:47;17.8;83.0
79513;SHT31;68962;51.980;5.678;2023-07-31T00:59:17;17.9;82.7
79513;SHT31;68962;51.980;5.678;2023-07-31T01:01:46;17.9;82.4
79513;SHT31;68962;51.980;5.678;2023-07-31T01:04:17;17.9;82.4
79513;SHT31;68962;51.980;5.678;2023-07-31T01:06:55;18.0;82.4
79513;SHT31;68962;51.980;5.678;2023-07-31T01:09:37;18.0;82.5
79513;SHT31;68962;51.980;5.678;2023-07-31T01:12:04;18.0;82.3
79513;SHT31;68962;51.980;5.678;2023-07-31T01:14:35;18.0;82.2
79513;SHT31;68962;51.980;5.678;2023-07-31T01:17:04;18.0;82.0
79513;SHT31;68962;51.980;5.678;2023-07-31T01:19:33;18.0;81.8
79513;SHT31;68962;51.980;5.678;2023-07-31T01:22:16;18.1;81.6
79513;SHT31;68962;51.980;5.678;2023-07-31T01:24:59;18.1;81.5
79513;SHT31;68962;51.980;5.678;2023-07-31T01:27:35;18.1;81.6
79513;SHT31;68962;51.980;5.678;2023-07-31T01:30:14;18.1;81.1
79513;SHT31;68962;51.980;5.678;2023-07-31T01:32:47;18.1;81.2
79513;SHT31;68962;51.980;5.678;2023-07-31T01:35:17;18.1;80.9
79513;SHT31;68962;51.980;5.678;2023-07-31T01:37:46;18.1;80.8
79513;SHT31;68962;51.980;5.678;2023-07-31T01:40:15;18.1;80.8
79513;SHT31;68962;51.980;5.678;2023-07-31T01:42:43;18.1;80.6
79513;SHT31;68962;51.980;5.678;2023-07-31T01:45:13;18.1;80.6
79513;SHT31;68962;51.980;5.678;2023-07-31T01:47:41;18.1;80.6
79513;SHT31;68962;51.980;5.678;2023-07-31T01:50:10;18.1;80.3
79513;SHT31;68962;51.980;5.678;2023-07-31T01:52:39;18.1;80.3
79513;SHT31;68962;51.980;5.678;2023-07-31T01:55:08;18.2;80.0
79513;SHT31;68962;51.980;5.678;2023-07-31T01:57:37;18.2;80.1
79513;SHT31;68962;51.980;5.678;2023-07-31T02:00:06;18.2;80.0
79513;SHT31;68962;51.980;5.678;2023-07-31T02:02:35;18.2;80.0
79513;SHT31;68962;51.980;5.678;2023-07-31T02:05:04;18.2;80.3
79513;SHT31;68962;51.980;5.678;2023-07-31T02:07:33;18.2;80.7
79513;SHT31;68962;51.980;5.678;2023-07-31T02:10:01;18.1;80.9
79513;SHT31;68962;51.980;5.678;2023-07-31T02:12:30;18.1;81.4
79513;SHT31;68962;51.980;5.678;2023-07-31T02:15:00;18.0;81.6
79513;SHT31;68962;51.980;5.678;2023-07-31T02:17:28;18.0;81.8
79513;SHT31;68962;51.980;5.678;2023-07-31T02:19:57;18.0;81.8
79513;SHT31;68962;51.980;5.678;2023-07-31T02:22:25;17.9;82.1
79513;SHT31;68962;51.980;5.678;2023-07-31T02:24:54;17.9;82.3
79513;SHT31;68962;51.980;5.678;2023-07-31T02:27:22;17.9;83.3
79513;SHT31;68962;51.980;5.678;2023-07-31T02:29:54;17.9;83.8
79513;SHT31;68962;51.980;5.678;2023-07-31T02:32:27;17.9;83.5
79513;SHT31;68962;51.980;5.678;2023-07-31T02:34:56;18.0;82.7
79513;SHT31;68962;51.980;5.678;2023-07-31T02:37:25;18.0;82.0
79513;SHT31;68962;51.980;5.678;2023-07-31T02:39:55;18.0;81.9
79513;SHT31;68962;51.980;5.678;2023-07-31T02:42:24;18.1;81.5
79513;SHT31;68962;51.980;5.678;2023-07-31T02:44:52;18.1;81.0
79513;SHT31;68962;51.980;5.678;2023-07-31T02:47:22;18.1;80.7
79513;SHT31;68962;51.980;5.678;2023-07-31T02:49:52;18.1;80.4
79513;SHT31;68962;51.980;5.678;2023-07-31T02:52:22;18.0;80.6
79513;SHT31;68962;51.980;5.678;2023-07-31T02:54:50;18.0;80.5
79513;SHT31;68962;51.980;5.678;2023-07-31T02:57:19;18.0;80.1
79513;SHT31;68962;51.980;5.678;2023-07-31T02:59:48;18.0;79.5
79513;SHT31;68962;51.980;5.678;2023-07-31T03:02:16;18.0;79.8
79513;SHT31;68962;51.980;5.678;2023-07-31T03:04:45;18.0;79.6
79513;SHT31;68962;51.980;5.678;2023-07-31T03:07:13;18.0;79.4
79513;SHT31;68962;51.980;5.678;2023-07-31T03:09:42;18.0;79.0
79513;SHT31;68962;51.980;5.678;2023-07-31T03:12:13;18.0;78.9
79513;SHT31;68962;51.980;5.678;2023-07-31T03:14:41;18.0;79.2
79513;SHT31;68962;51.980;5.678;2023-07-31T03:17:12;18.0;78.7
79513;SHT31;68962;51.980;5.678;2023-07-31T03:19:40;18.0;78.5
79513;SHT31;68962;51.980;5.678;2023-07-31T03:22:09;18.0;78.9
79513;SHT31;68962;51.980;5.678;2023-07-31T03:24:37;18.0;78.2
79513;SHT31;68962;51.980;5.678;2023-07-31T03:27:06;18.0;78.1
79513;SHT31;68962;51.980;5.678;2023-07-31T03:29:35;18.0;78.0
79513;SHT31;68962;51.980;5.678;2023-07-31T03:32:04;18.0;77.8
79513;SHT31;68962;51.980;5.678;2023-07-31T03:34:32;18.0;77.6
79513;SHT31;68962;51.980;5.678;2023-07-31T03:37:01;18.0;77.9
79513;SHT31;68962;51.980;5.678;2023-07-31T03:39:31;18.0;77.1
79513;SHT31;68962;51.980;5.678;2023-07-31T03:42:00;18.0;77.2
79513;SHT31;68962;51.980;5.678;2023-07-31T03:44:28;18.0;76.9
79513;SHT31;68962;51.980;5.678;2023-07-31T03:46:57;18.0;77.2
79513;SHT31;68962;51.980;5.678;2023-07-31T03:49:26;18.1;76.8
79513;SHT31;68962;51.980;5.678;2023-07-31T03:51:55;18.1;76.7
79513;SHT31;68962;51.980;5.678;2023-07-31T03:54:24;18.1;76.7
79513;SHT31;68962;51.980;5.678;2023-07-31T03:56:52;18.2;76.6
79513;SHT31;68962;51.980;5.678;2023-07-31T03:59:21;18.2;75.9
79513;SHT31;68962;51.980;5.678;2023-07-31T04:01:49;18.3;75.7
79513;SHT31;68962;51.980;5.678;2023-07-31T04:04:18;18.3;75.5
79513;SHT31;68962;51.980;5.678;2023-07-31T04:06:47;18.3;75.0
79513;SHT31;68962;51.980;5.678;2023-07-31T04:09:15;18.3;75.0
79513;SHT31;68962;51.980;5.678;2023-07-31T04:11:44;18.3;74.6
79513;SHT31;68962;51.980;5.678;2023-07-31T04:14:12;18.3;74.4
79513;SHT31;68962;51.980;5.678;2023-07-31T04:16:41;18.3;74.4
79513;SHT31;68962;51.980;5.678;2023-07-31T04:19:10;18.3;74.9
79513;SHT31;68962;51.980;5.678;2023-07-31T04:21:44;18.4;74.5
79513;SHT31;68962;51.980;5.678;2023-07-31T04:24:13;18.4;74.0
79513;SHT31;68962;51.980;5.678;2023-07-31T04:26:41;18.5;73.8
79513;SHT31;68962;51.980;5.678;2023-07-31T04:29:10;18.5;73.0
79513;SHT31;68962;51.980;5.678;2023-07-31T04:31:38;18.6;73.0
79513;SHT31;68962;51.980;5.678;2023-07-31T04:34:07;18.6;72.9
79513;SHT31;68962;51.980;5.678;2023-07-31T04:36:35;18.6;72.3
79513;SHT31;68962;51.980;5.678;2023-07-31T04:39:04;18.6;72.5
79513;SHT31;68962;51.980;5.678;2023-07-31T04:41:32;18.6;72.9
79513;SHT31;68962;51.980;5.678;2023-07-31T04:44:01;18.6;72.7
79513;SHT31;68962;51.980;5.678;2023-07-31T04:46:30;18.6;72.4
79513;SHT31;68962;51.980;5.678;2023-07-31T04:49:00;18.5;72.4
79513;SHT31;68962;51.980;5.678;2023-07-31T04:51:29;18.5;73.0
79513;SHT31;68962;51.980;5.678;2023-07-31T04:53:58;18.5;72.9
79513;SHT31;68962;51.980;5.678;2023-07-31T04:56:26;18.5;72.8
79513;SHT31;68962;51.980;5.678;2023-07-31T04:58:55;18.5;72.8
79513;SHT31;68962;51.980;5.678;2023-07-31T05:01:24;18.5;73.2
79513;SHT31;68962;51.980;5.678;2023-07-31T05:03:57;18.5;73.6
79513;SHT31;68962;51.980;5.678;2023-07-31T05:06:26;18.6;73.7
79513;SHT31;68962;51.980;5.678;2023-07-31T05:08:55;18.8;73.0
79513;SHT31;68962;51.980;5.678;2023-07-31T05:11:23;18.9;72.5
79513;SHT31;68962;51.980;5.678;2023-07-31T05:13:53;19.0;72.6
79513;SHT31;68962;51.980;5.678;2023-07-31T05:16:21;19.0;71.8
79513;SHT31;68962;51.980;5.678;2023-07-31T05:18:54;19.1;71.6
79513;SHT31;68962;51.980;5.678;2023-07-31T05:21:30;19.2;71.3
79513;SHT31;68962;51.980;5.678;2023-07-31T05:28:47;19.3;71.5
79513;SHT31;68962;51.980;5.678;2023-07-31T05:31:16;19.3;71.9
79513;SHT31;68962;51.980;5.678;2023-07-31T05:33:44;19.3;72.3
79513;SHT31;68962;51.980;5.678;2023-07-31T05:36:19;19.3;71.9
79513;SHT31;68962;51.980;5.678;2023-07-31T05:38:48;19.3;72.6
79513;SHT31;68962;51.980;5.678;2023-07-31T05:41:20;19.3;72.9
79513;SHT31;68962;51.980;5.678;2023-07-31T05:43:48;19.3;73.2
79513;SHT31;68962;51.980;5.678;2023-07-31T05:46:20;19.2;73.7
79513;SHT31;68962;51.980;5.678;2023-07-31T05:48:48;19.2;73.5
79513;SHT31;68962;51.980;5.678;2023-07-31T05:51:17;19.1;73.7
79513;SHT31;68962;51.980;5.678;2023-07-31T05:53:45;19.0;74.1
79513;SHT31;68962;51.980;5.678;2023-07-31T05:56:14;18.8;75.1
79513;SHT31;68962;51.980;5.678;2023-07-31T05:58:42;18.6;76.0
79513;SHT31;68962;51.980;5.678;2023-07-31T06:01:11;18.5;76.8
79513;SHT31;68962;51.980;5.678;2023-07-31T06:03:40;18.3;77.3
79513;SHT31;68962;51.980;5.678;2023-07-31T06:06:09;18.2;77.9
79513;SHT31;68962;51.980;5.678;2023-07-31T06:08:37;18.1;78.4
79513;SHT31;68962;51.980;5.678;2023-07-31T06:11:07;18.1;78.8
79513;SHT31;68962;51.980;5.678;2023-07-31T06:13:36;18.0;79.5
79513;SHT31;68962;51.980;5.678;2023-07-31T06:16:06;17.9;80.0
79513;SHT31;68962;51.980;5.678;2023-07-31T06:18:35;17.9;80.5
79513;SHT31;68962;51.980;5.678;2023-07-31T06:21:03;17.8;81.0
79513;SHT31;68962;51.980;5.678;2023-07-31T06:23:32;17.8;81.4
79513;SHT31;68962;51.980;5.678;2023-07-31T06:26:01;17.8;81.6
79513;SHT31;68962;51.980;5.678;2023-07-31T06:28:31;17.8;81.7
79513;SHT31;68962;51.980;5.678;2023-07-31T06:31:00;17.8;81.8
79513;SHT31;68962;51.980;5.678;2023-07-31T06:33:29;17.9;81.9
79513;SHT31;68962;51.980;5.678;2023-07-31T06:35:58;17.9;81.6
79513;SHT31;68962;51.980;5.678;2023-07-31T06:38:26;18.0;81.7
79513;SHT31;68962;51.980;5.678;2023-07-31T06:40:55;18.0;81.2
79513;SHT31;68962;51.980;5.678;2023-07-31T06:43:26;18.0;81.0
79513;SHT31;68962;51.980;5.678;2023-07-31T06:45:55;18.0;81.3
79513;SHT31;68962;51.980;5.678;2023-07-31T06:48:23;18.0;81.7
79513;SHT31;68962;51.980;5.678;2023-07-31T06:50:52;18.0;81.7
79513;SHT31;68962;51.980;5.678;2023-07-31T06:53:21;18.0;81.8
79513;SHT31;68962;51.980;5.678;2023-07-31T06:55:49;17.9;81.9
79513;SHT31;68962;51.980;5.678;2023-07-31T06:58:18;17.9;82.1
79513;SHT31;68962;51.980;5.678;2023-07-31T07:00:48;17.9;82.0
79513;SHT31;68962;51.980;5.678;2023-07-31T07:03:18;17.9;82.2
79513;SHT31;68962;51.980;5.678;2023-07-31T07:05:47;17.9;82.8
79513;SHT31;68962;51.980;5.678;2023-07-31T07:08:17;18.0;82.6
79513;SHT31;68962;51.980;5.678;2023-07-31T07:10:46;18.0;82.8
79513;SHT31;68962;51.980;5.678;2023-07-31T07:13:15;18.0;83.1
79513;SHT31;68962;51.980;5.678;2023-07-31T07:15:47;18.0;83.0
79513;SHT31;68962;51.980;5.678;2023-07-31T07:18:16;18.0;83.6
79513;SHT31;68962;51.980;5.678;2023-07-31T07:20:49;18.0;83.3
79513;SHT31;68962;51.980;5.678;2023-07-31T07:23:18;18.0;82.9
79513;SHT31;68962;51.980;5.678;2023-07-31T07:25:47;18.0;82.7
79513;SHT31;68962;51.980;5.678;2023-07-31T07:28:16;18.0;83.1
79513;SHT31;68962;51.980;5.678;2023-07-31T07:30:50;18.1;82.9
79513;SHT31;68962;51.980;5.678;2023-07-31T07:33:19;18.1;82.8
79513;SHT31;68962;51.980;5.678;2023-07-31T07:35:47;18.1;82.9
79513;SHT31;68962;51.980;5.678;2023-07-31T07:38:16;18.1;82.5
79513;SHT31;68962;51.980;5.678;2023-07-31T07:40:45;18.1;82.2
79513;SHT31;68962;51.980;5.678;2023-07-31T07:43:16;18.1;82.4
79513;SHT31;68962;51.980;5.678;2023-07-31T07:45:45;18.1;82.4
79513;SHT31;68962;51.980;5.678;2023-07-31T07:48:14;18.1;82.4
79513;SHT31;68962;51.980;5.678;2023-07-31T07:50:43;18.2;82.6
79513;SHT31;68962;51.980;5.678;2023-07-31T07:53:12;18.2;82.6
79513;SHT31;68962;51.980;5.678;2023-07-31T07:55:41;18.2;82.7
79513;SHT31;68962;51.980;5.678;2023-07-31T07:58:09;18.2;82.6
79513;SHT31;68962;51.980;5.678;2023-07-31T08:00:38;18.3;82.2
79513;SHT31;68962;51.980;5.678;2023-07-31T08:03:07;18.3;82.6
79513;SHT31;68962;51.980;5.678;2023-07-31T08:05:36;18.3;82.7
79513;SHT31;68962;51.980;5.678;2023-07-31T08:08:05;18.3;82.5
79513;SHT31;68962;51.980;5.678;2023-07-31T08:10:33;18.4;82.2
79513;SHT31;68962;51.980;5.678;2023-07-31T08:13:02;18.4;82.0
79513;SHT31;68962;51.980;5.678;2023-07-31T08:15:30;18.4;82.1
79513;SHT31;68962;51.980;5.678;2023-07-31T08:17:59;18.5;82.3
79513;SHT31;68962;51.980;5.678;2023-07-31T08:20:28;18.5;82.2
79513;SHT31;68962;51.980;5.678;2023-07-31T08:22:59;18.5;82.4
79513;SHT31;68962;51.980;5.678;2023-07-31T08:25:27;18.5;82.3
79513;SHT31;68962;51.980;5.678;2023-07-31T08:27:56;18.6;82.4
79513;SHT31;68962;51.980;5.678;2023-07-31T08:30:24;18.6;81.8
79513;SHT31;68962;51.980;5.678;2023-07-31T08:32:53;18.6;82.0
79513;SHT31;68962;51.980;5.678;2023-07-31T08:35:23;18.6;82.1
79513;SHT31;68962;51.980;5.678;2023-07-31T08:37:52;18.6;82.3
79513;SHT31;68962;51.980;5.678;2023-07-31T08:40:21;18.6;82.0
79513;SHT31;68962;51.980;5.678;2023-07-31T08:42:52;18.6;82.1
79513;SHT31;68962;51.980;5.678;2023-07-31T08:45:22;18.7;82.1
79513;SHT31;68962;51.980;5.678;2023-07-31T08:47:52;18.7;82.2
79513;SHT31;68962;51.980;5.678;2023-07-31T08:50:21;18.8;82.5
79513;SHT31;68962;51.980;5.678;2023-07-31T08:52:52;18.8;81.5
79513;SHT31;68962;51.980;5.678;2023-07-31T08:55:21;18.8;82.0
79513;SHT31;68962;51.980;5.678;2023-07-31T08:57:51;18.8;81.7
79513;SHT31;68962;51.980;5.678;2023-07-31T09:00:21;18.8;81.7
79513;SHT31;68962;51.980;5.678;2023-07-31T09:02:57;18.8;81.4
79513;SHT31;68962;51.980;5.678;2023-07-31T09:05:30;18.8;81.4
79513;SHT31;68962;51.980;5.678;2023-07-31T09:08:02;18.8;81.4
79513;SHT31;68962;51.980;5.678;2023-07-31T09:10:34;18.8;81.7
79513;SHT31;68962;51.980;5.678;2023-07-31T09:13:04;18.8;81.7
79513;SHT31;68962;51.980;5.678;2023-07-31T09:15:34;18.8;81.8
79513;SHT31;68962;51.980;5.678;2023-07-31T09:18:05;18.8;81.3
79513;SHT31;68962;51.980;5.678;2023-07-31T09:20:33;18.8;81.8
79513;SHT31;68962;51.980;5.678;2023-07-31T09:23:10;18.8;81.9
79513;SHT31;68962;51.980;5.678;2023-07-31T09:25:43;18.8;82.1
79513;SHT31;68962;51.980;5.678;2023-07-31T09:28:12;18.8;81.9
79513;SHT31;68962;51.980;5.678;2023-07-31T09:30:47;18.8;81.8
79513;SHT31;68962;51.980;5.678;2023-07-31T09:33:17;18.8;82.1
79513;SHT31;68962;51.980;5.678;2023-07-31T09:35:48;18.8;81.7
79513;SHT31;68962;51.980;5.678;2023-07-31T09:38:17;18.9;81.2
79513;SHT31;68962;51.980;5.678;2023-07-31T09:40:47;18.9;80.8
79513;SHT31;68962;51.980;5.678;2023-07-31T09:43:20;18.9;81.0
79513;SHT31;68962;51.980;5.678;2023-07-31T09:45:55;18.9;81.2
79513;SHT31;68962;51.980;5.678;2023-07-31T09:48:25;19.0;80.7
79513;SHT31;68962;51.980;5.678;2023-07-31T09:51:04;19.0;80.8
79513;SHT31;68962;51.980;5.678;2023-07-31T09:53:32;19.1;80.5
79513;SHT31;68962;51.980;5.678;2023-07-31T09:56:02;19.2;80.0
79513;SHT31;68962;51.980;5.678;2023-07-31T09:58:34;19.2;79.5
79513;SHT31;68962;51.980;5.678;2023-07-31T10:01:04;19.2;79.8
79513;SHT31;68962;51.980;5.678;2023-07-31T10:03:33;19.3;79.5
79513;SHT31;68962;51.980;5.678;2023-07-31T10:06:03;19.3;79.2
79513;SHT31;68962;51.980;5.678;2023-07-31T10:08:35;19.3;79.2
79513;SHT31;68962;51.980;5.678;2023-07-31T10:11:07;19.4;79.3
79513;SHT31;68962;51.980;5.678;2023-07-31T10:13:39;19.4;78.8
79513;SHT31;68962;51.980;5.678;2023-07-31T10:16:10;19.4;79.1
79513;SHT31;68962;51.980;5.678;2023-07-31T10:18:41;19.4;78.9
79513;SHT31;68962;51.980;5.678;2023-07-31T10:21:11;19.5;78.7
79513;SHT31;68962;51.980;5.678;2023-07-31T10:23:40;19.5;78.6
79513;SHT31;68962;51.980;5.678;2023-07-31T10:26:13;19.6;78.6
79513;SHT31;68962;51.980;5.678;2023-07-31T10:28:44;19.6;78.3
79513;SHT31;68962;51.980;5.678;2023-07-31T10:31:15;19.6;78.0
79513;SHT31;68962;51.980;5.678;2023-07-31T10:33:44;19.7;78.1
79513;SHT31;68962;51.980;5.678;2023-07-31T10:36:17;19.7;77.7
79513;SHT31;68962;51.980;5.678;2023-07-31T10:38:48;19.7;77.9
79513;SHT31;68962;51.980;5.678;2023-07-31T10:41:18;19.8;77.8
79513;SHT31;68962;51.980;5.678;2023-07-31T10:43:47;19.8;77.9
79513;SHT31;68962;51.980;5.678;2023-07-31T10:46:18;19.8;78.2
79513;SHT31;68962;51.980;5.678;2023-07-31T10:48:59;19.8;77.5
79513;SHT31;68962;51.980;5.678;2023-07-31T10:51:35;19.8;77.9
79513;SHT31;68962;51.980;5.678;2023-07-31T10:54:14;19.8;78.9
79513;SHT31;68962;51.980;5.678;2023-07-31T10:56:46;19.9;78.2
79513;SHT31;68962;51.980;5.678;2023-07-31T10:59:19;19.9;78.5
79513;SHT31;68962;51.980;5.678;2023-07-31T11:01:52;19.9;78.1
79513;SHT31;68962;51.980;5.678;2023-07-31T11:04:25;19.9;77.5
79513;SHT31;68962;51.980;5.678;2023-07-31T11:06:59;19.9;78.1
79513;SHT31;68962;51.980;5.678;2023-07-31T11:09:30;20.0;77.7
79513;SHT31;68962;51.980;5.678;2023-07-31T11:12:00;20.0;78.0
79513;SHT31;68962;51.980;5.678;2023-07-31T11:14:29;20.0;78.6
79513;SHT31;68962;51.980;5.678;2023-07-31T11:16:57;20.0;79.1
79513;SHT31;68962;51.980;5.678;2023-07-31T11:19:26;20.0;79.2
79513;SHT31;68962;51.980;5.678;2023-07-31T11:21:56;20.0;79.0
79513;SHT31;68962;51.980;5.678;2023-07-31T11:24:25;20.0;79.1
79513;SHT31;68962;51.980;5.678;2023-07-31T11:26:54;20.0;78.9
79513;SHT31;68962;51.980;5.678;2023-07-31T11:29:29;20.0;78.7
79513;SHT31;68962;51.980;5.678;2023-07-31T11:31:58;20.0;78.7
79513;SHT31;68962;51.980;5.678;2023-07-31T11:34:26;20.0;78.0
79513;SHT31;68962;51.980;5.678;2023-07-31T11:36:55;20.1;77.7
79513;SHT31;68962;51.980;5.678;2023-07-31T11:39:30;20.1;77.6
79513;SHT31;68962;51.980;5.678;2023-07-31T11:42:02;20.1;77.8
79513;SHT31;68962;51.980;5.678;2023-07-31T11:44:41;20.2;77.0
79513;SHT31;68962;51.980;5.678;2023-07-31T11:47:15;20.2;76.8
79513;SHT31;68962;51.980;5.678;2023-07-31T11:49:45;20.2;77.1
79513;SHT31;68962;51.980;5.678;2023-07-31T11:52:16;20.2;76.7
79513;SHT31;68962;51.980;5.678;2023-07-31T11:54:47;20.2;77.3
79513;SHT31;68962;51.980;5.678;2023-07-31T11:57:16;20.3;76.7
79513;SHT31;68962;51.980;5.678;2023-07-31T11:59:47;20.3;76.7
79513;SHT31;68962;51.980;5.678;2023-07-31T12:02:17;20.4;76.2
79513;SHT31;68962;51.980;5.678;2023-07-31T12:04:47;20.4;75.7
79513;SHT31;68962;51.980;5.678;2023-07-31T12:07:16;20.5;75.3
79513;SHT31;68962;51.980;5.678;2023-07-31T12:09:52;20.5;75.0
79513;SHT31;68962;51.980;5.678;2023-07-31T12:12:23;20.5;75.3
79513;SHT31;68962;51.980;5.678;2023-07-31T12:14:54;20.6;75.3
79513;SHT31;68962;51.980;5.678;2023-07-31T12:17:26;20.7;75.3
79513;SHT31;68962;51.980;5.678;2023-07-31T12:19:55;20.7;74.7
79513;SHT31;68962;51.980;5.678;2023-07-31T12:22:26;20.8;74.9
79513;SHT31;68962;51.980;5.678;2023-07-31T12:24:55;20.8;75.0
79513;SHT31;68962;51.980;5.678;2023-07-31T12:27:32;20.9;75.2
79513;SHT31;68962;51.980;5.678;2023-07-31T12:29:58;20.8;74.6
79513;SHT31;68962;51.980;5.678;2023-07-31T12:32:30;20.8;74.2
79513;SHT31;68962;51.980;5.678;2023-07-31T12:35:01;20.8;74.1
79513;SHT31;68962;51.980;5.678;2023-07-31T12:37:32;20.8;74.7
79513;SHT31;68962;51.980;5.678;2023-07-31T12:40:01;20.8;74.8
79513;SHT31;68962;51.980;5.678;2023-07-31T12:42:33;20.8;74.9
79513;SHT31;68962;51.980;5.678;2023-07-31T12:45:02;20.8;75.3
79513;SHT31;68962;51.980;5.678;2023-07-31T12:47:30;20.8;75.3
79513;SHT31;68962;51.980;5.678;2023-07-31T12:49:59;20.7;75.4
79513;SHT31;68962;51.980;5.678;2023-07-31T12:52:27;20.7;75.7
79513;SHT31;68962;51.980;5.678;2023-07-31T12:54:56;20.8;75.7
79513;SHT31;68962;51.980;5.678;2023-07-31T12:57:27;20.8;76.1
79513;SHT31;68962;51.980;5.678;2023-07-31T12:59:55;20.8;76.4
79513;SHT31;68962;51.980;5.678;2023-07-31T13:02:24;20.8;76.3
79513;SHT31;68962;51.980;5.678;2023-07-31T13:04:53;20.8;75.2
79513;SHT31;68962;51.980;5.678;2023-07-31T13:07:22;20.8;74.8
79513;SHT31;68962;51.980;5.678;2023-07-31T13:09:51;20.8;75.4
79513;SHT31;68962;51.980;5.678;2023-07-31T13:12:20;20.7;75.2
79513;SHT31;68962;51.980;5.678;2023-07-31T13:14:49;20.7;75.5
79513;SHT31;68962;51.980;5.678;2023-07-31T13:17:18;20.7;75.6
79513;SHT31;68962;51.980;5.678;2023-07-31T13:19:49;20.7;76.2
79513;SHT31;68962;51.980;5.678;2023-07-31T13:22:17;20.8;76.0
79513;SHT31;68962;51.980;5.678;2023-07-31T13:24:48;20.8;75.6
79513;SHT31;68962;51.980;5.678;2023-07-31T13:27:17;20.9;75.1
79513;SHT31;68962;51.980;5.678;2023-07-31T13:29:48;20.9;74.8
79513;SHT31;68962;51.980;5.678;2023-07-31T13:32:17;20.9;74.4
79513;SHT31;68962;51.980;5.678;2023-07-31T13:34:47;20.9;74.4
79513;SHT31;68962;51.980;5.678;2023-07-31T13:37:17;20.8;75.1
79513;SHT31;68962;51.980;5.678;2023-07-31T13:39:45;20.8;75.3
79513;SHT31;68962;51.980;5.678;2023-07-31T13:42:16;20.8;75.7
79513;SHT31;68962;51.980;5.678;2023-07-31T13:44:44;20.7;76.3
79513;SHT31;68962;51.980;5.678;2023-07-31T13:47:13;20.6;76.6
79513;SHT31;68962;51.980;5.678;2023-07-31T13:49:42;20.6;76.6
79513;SHT31;68962;51.980;5.678;2023-07-31T13:52:10;20.5;77.0
79513;SHT31;68962;51.980;5.678;2023-07-31T13:54:39;20.4;78.0
79513;SHT31;68962;51.980;5.678;2023-07-31T13:57:09;20.4;78.1
79513;SHT31;68962;51.980;5.678;2023-07-31T13:59:37;20.3;78.2
79513;SHT31;68962;51.980;5.678;2023-07-31T14:02:08;20.3;78.2
79513;SHT31;68962;51.980;5.678;2023-07-31T14:04:37;20.3;78.3
79513;SHT31;68962;51.980;5.678;2023-07-31T14:07:06;20.3;78.6
79513;SHT31;68962;51.980;5.678;2023-07-31T14:09:37;20.2;79.1
79513;SHT31;68962;51.980;5.678;2023-07-31T14:12:06;20.2;78.8
79513;SHT31;68962;51.980;5.678;2023-07-31T14:14:34;20.2;78.7
79513;SHT31;68962;51.980;5.678;2023-07-31T14:17:03;20.2;78.6
79513;SHT31;68962;51.980;5.678;2023-07-31T14:19:32;20.2;78.4
79513;SHT31;68962;51.980;5.678;2023-07-31T14:22:00;20.2;79.1
79513;SHT31;68962;51.980;5.678;2023-07-31T14:24:29;20.2;78.8
79513;SHT31;68962;51.980;5.678;2023-07-31T14:26:58;20.2;78.8
79513;SHT31;68962;51.980;5.678;2023-07-31T14:29:26;20.3;78.5
79513;SHT31;68962;51.980;5.678;2023-07-31T14:31:55;20.3;78.3
79513;SHT31;68962;51.980;5.678;2023-07-31T14:34:23;20.3;77.8
79513;SHT31;68962;51.980;5.678;2023-07-31T14:36:52;20.3;78.5
79513;SHT31;68962;51.980;5.678;2023-07-31T14:39:21;20.3;78.6
79513;SHT31;68962;51.980;5.678;2023-07-31T14:41:49;20.2;78.8
79513;SHT31;68962;51.980;5.678;2023-07-31T14:44:18;20.2;78.8
79513;SHT31;68962;51.980;5.678;2023-07-31T14:46:46;20.2;79.0
79513;SHT31;68962;51.980;5.678;2023-07-31T14:49:15;20.2;78.7
79513;SHT31;68962;51.980;5.678;2023-07-31T14:51:44;20.2;78.6
79513;SHT31;68962;51.980;5.678;2023-07-31T14:54:12;20.2;78.9
79513;SHT31;68962;51.980;5.678;2023-07-31T14:56:41;20.2;78.7
79513;SHT31;68962;51.980;5.678;2023-07-31T14:59:09;20.2;78.7
79513;SHT31;68962;51.980;5.678;2023-07-31T15:01:38;20.2;79.0
79513;SHT31;68962;51.980;5.678;2023-07-31T15:04:07;20.2;78.7
79513;SHT31;68962;51.980;5.678;2023-07-31T15:06:35;20.2;78.4
79513;SHT31;68962;51.980;5.678;2023-07-31T15:09:04;20.2;78.7
79513;SHT31;68962;51.980;5.678;2023-07-31T15:11:33;20.2;78.8
79513;SHT31;68962;51.980;5.678;2023-07-31T15:14:02;20.2;78.6
79513;SHT31;68962;51.980;5.678;2023-07-31T15:16:31;20.2;78.7
79513;SHT31;68962;51.980;5.678;2023-07-31T15:18:59;20.2;78.6
79513;SHT31;68962;51.980;5.678;2023-07-31T15:21:28;20.1;78.8
79513;SHT31;68962;51.980;5.678;2023-07-31T15:23:57;20.1;79.0
79513;SHT31;68962;51.980;5.678;2023-07-31T15:26:25;20.1;78.6
79513;SHT31;68962;51.980;5.678;2023-07-31T15:29:01;20.1;79.1
79513;SHT31;68962;51.980;5.678;2023-07-31T15:31:32;20.1;79.5
79513;SHT31;68962;51.980;5.678;2023-07-31T15:34:00;20.1;79.6
79513;SHT31;68962;51.980;5.678;2023-07-31T15:36:29;20.1;79.4
79513;SHT31;68962;51.980;5.678;2023-07-31T15:38:58;20.1;79.5
79513;SHT31;68962;51.980;5.678;2023-07-31T15:41:27;20.1;79.5
79513;SHT31;68962;51.980;5.678;2023-07-31T15:43:56;20.1;79.5
79513;SHT31;68962;51.980;5.678;2023-07-31T15:46:26;20.0;79.6
79513;SHT31;68962;51.980;5.678;2023-07-31T15:48:55;20.0;80.0
79513;SHT31;68962;51.980;5.678;2023-07-31T15:51:24;20.0;80.2
79513;SHT31;68962;51.980;5.678;2023-07-31T15:53:55;20.0;80.2
79513;SHT31;68962;51.980;5.678;2023-07-31T15:56:24;19.9;80.4
79513;SHT31;68962;51.980;5.678;2023-07-31T15:58:52;19.9;80.2
79513;SHT31;68962;51.980;5.678;2023-07-31T16:01:24;19.9;80.3
79513;SHT31;68962;51.980;5.678;2023-07-31T16:03:55;19.9;79.5
79513;SHT31;68962;51.980;5.678;2023-07-31T16:06:23;19.9;80.0
79513;SHT31;68962;51.980;5.678;2023-07-31T16:08:52;19.9;80.7
79513;SHT31;68962;51.980;5.678;2023-07-31T16:11:25;19.9;80.8
79513;SHT31;68962;51.980;5.678;2023-07-31T16:18:46;20.2;80.1
79513;SHT31;68962;51.980;5.678;2023-07-31T16:21:15;20.2;78.4
79513;SHT31;68962;51.980;5.678;2023-07-31T16:23:44;20.3;78.3
79513;SHT31;68962;51.980;5.678;2023-07-31T16:26:12;20.3;77.8
79513;SHT31;68962;51.980;5.678;2023-07-31T16:28:41;20.4;77.6